Time;durP1;ratioP1;P1;durP2;ratioP2;P2;SDS_P1;SDS_P2;PMS_P1;PMS_P2;Temp;Humidity;BMP_temperature;BMP_pressure;BME280_temperature;BME280_humidity;BME280_pressure;Samples;Min_cycle;Max_cycle;Signal;HPM_P1;HPM_P2
2023/09/26 00:00:58;;;;;;;7.23;2.60;;;11.90;99.90;;;;;;5016286;28;20198;-47
2023/09/26 00:03:24;;;;;;;3.23;2.43;;;11.90;99.90;;;;;;5016235;28;20205;-46
2023/09/26 00:05:49;;;;;;;3.37;2.40;;;11.80;99.90;;;;;;5016217;28;20585;-46
2023/09/26 00:08:15;;;;;;;3.70;2.70;;;11.80;99.90;;;;;;5015879;28;20182;-49
2023/09/26 00:10:41;;;;;;;3.37;2.50;;;11.80;99.90;;;;;;5015918;28;20197;-46
2023/09/26 00:13:06;;;;;;;5.60;2.40;;;11.80;99.90;;;;;;5016092;28;20213;-46
2023/09/26 00:15:33;;;;;;;3.93;2.10;;;11.70;99.90;;;;;;5015706;28;20589;-48
2023/09/26 00:17:59;;;;;;;3.30;2.23;;;11.70;99.90;;;;;;5015740;28;20181;-47
2023/09/26 00:20:27;;;;;;;4.40;2.40;;;11.70;99.90;;;;;;5015820;28;20197;-41
2023/09/26 00:22:56;;;;;;;2.87;2.10;;;11.70;99.90;;;;;;5016434;28;20184;-48
2023/09/26 00:25:25;;;;;;;3.47;2.20;;;11.70;99.90;;;;;;5016029;28;20261;-47
2023/09/26 00:27:52;;;;;;;4.23;2.20;;;11.70;99.90;;;;;;5014995;28;20181;-46
2023/09/26 00:30:18;;;;;;;7.27;2.30;;;11.60;99.90;;;;;;5015821;28;20209;-46
2023/09/26 00:32:44;;;;;;;8.50;2.20;;;11.60;99.90;;;;;;5015668;28;20608;-47
2023/09/26 00:35:12;;;;;;;3.80;2.10;;;11.60;99.90;;;;;;5015870;28;20237;-48
2023/09/26 00:37:42;;;;;;;4.07;2.23;;;11.50;99.90;;;;;;5016011;28;20201;-48
2023/09/26 00:40:13;;;;;;;3.47;2.17;;;11.50;99.90;;;;;;5014738;28;20229;-46
2023/09/26 00:42:39;;;;;;;5.97;2.90;;;11.50;99.90;;;;;;5015847;28;20217;-47
2023/09/26 00:45:06;;;;;;;7.23;2.87;;;11.40;99.90;;;;;;5014518;28;20209;-47
2023/09/26 00:47:34;;;;;;;3.53;2.57;;;11.40;99.90;;;;;;5014505;28;20186;-46
2023/09/26 00:50:03;;;;;;;3.73;2.30;;;11.40;99.90;;;;;;5016922;28;20209;-46
2023/09/26 00:52:29;;;;;;;8.83;2.60;;;11.40;99.90;;;;;;5014493;28;20185;-47
2023/09/26 00:54:56;;;;;;;5.37;2.30;;;11.40;99.90;;;;;;5015480;28;20692;-47
2023/09/26 00:57:22;;;;;;;4.73;1.93;;;11.30;99.90;;;;;;5014230;28;20185;-47
2023/09/26 00:59:48;;;;;;;9.13;2.47;;;11.30;99.90;;;;;;5014771;28;20206;-47
2023/09/26 01:02:13;;;;;;;4.23;2.13;;;11.30;99.90;;;;;;5015561;28;20261;-48
2023/09/26 01:04:40;;;;;;;3.87;2.30;;;11.30;99.90;;;;;;5015773;28;20629;-46
2023/09/26 01:07:06;;;;;;;7.60;2.37;;;11.30;99.90;;;;;;5015590;28;20232;-48
2023/09/26 01:09:31;;;;;;;3.40;2.17;;;11.30;99.90;;;;;;5015362;28;20677;-45
2023/09/26 01:11:57;;;;;;;8.13;2.57;;;11.20;99.90;;;;;;5014313;28;20276;-47
2023/09/26 01:14:23;;;;;;;3.67;2.40;;;11.20;99.90;;;;;;5015274;28;20716;-46
2023/09/26 01:16:55;;;;;;;3.60;2.20;;;11.20;99.90;;;;;;5015473;28;20232;-46
2023/09/26 01:19:21;;;;;;;5.10;1.93;;;11.20;99.90;;;;;;5015613;28;20288;-47
2023/09/26 01:21:47;;;;;;;5.80;2.23;;;11.20;99.90;;;;;;5014171;28;20708;-48
2023/09/26 01:24:17;;;;;;;3.73;2.23;;;11.20;99.90;;;;;;5014427;28;20190;-47
2023/09/26 01:26:42;;;;;;;6.40;2.30;;;11.10;99.90;;;;;;5015163;28;20193;-45
2023/09/26 01:29:10;;;;;;;4.63;2.50;;;11.10;99.90;;;;;;5015514;28;20593;-46
2023/09/26 01:31:37;;;;;;;5.17;2.40;;;11.10;99.90;;;;;;5015921;28;20276;-47
2023/09/26 01:34:03;;;;;;;3.93;1.80;;;11.10;99.90;;;;;;5018108;28;20259;-47
2023/09/26 01:36:30;;;;;;;2.80;2.10;;;11.00;99.90;;;;;;5017493;28;20213;-47
2023/09/26 01:38:56;;;;;;;4.90;1.90;;;11.00;99.90;;;;;;5014758;28;20177;-45
2023/09/26 01:41:23;;;;;;;4.30;2.43;;;11.00;99.90;;;;;;5015321;28;20158;-47
2023/09/26 01:43:49;;;;;;;3.43;2.00;;;11.00;99.90;;;;;;5013543;28;20212;-47
2023/09/26 01:46:15;;;;;;;2.67;1.80;;;10.90;99.90;;;;;;5013828;28;20227;-47
2023/09/26 01:48:41;;;;;;;2.40;1.93;;;11.00;99.90;;;;;;5014913;28;20227;-46
2023/09/26 01:51:07;;;;;;;2.50;1.80;;;10.90;99.90;;;;;;5014580;28;20205;-46
2023/09/26 01:53:33;;;;;;;3.97;2.00;;;10.90;99.90;;;;;;5014859;28;20174;-46
2023/09/26 01:55:59;;;;;;;2.40;1.80;;;10.90;99.90;;;;;;5013400;28;20262;-46
2023/09/26 01:58:25;;;;;;;2.50;2.00;;;10.90;99.90;;;;;;5013433;28;20672;-46
2023/09/26 02:00:51;;;;;;;2.13;1.93;;;10.80;99.90;;;;;;5013107;28;20205;-45
2023/09/26 02:03:16;;;;;;;4.00;1.80;;;10.80;99.90;;;;;;5013861;28;20188;-46
2023/09/26 02:05:42;;;;;;;2.90;1.93;;;10.80;99.90;;;;;;5013815;28;20181;-47
2023/09/26 02:08:08;;;;;;;2.90;1.87;;;10.80;99.90;;;;;;5013798;28;20208;-48
2023/09/26 02:10:34;;;;;;;3.00;2.23;;;10.70;99.90;;;;;;5013782;28;20214;-44
2023/09/26 02:13:00;;;;;;;3.17;2.30;;;10.80;99.90;;;;;;5013735;28;20189;-46
2023/09/26 02:15:25;;;;;;;2.90;2.00;;;10.70;99.90;;;;;;5013760;28;20299;-47
2023/09/26 02:17:51;;;;;;;4.40;2.00;;;10.70;99.90;;;;;;5013823;28;20178;-46
2023/09/26 02:20:19;;;;;;;5.93;2.33;;;10.80;99.90;;;;;;5014481;28;20205;-43
2023/09/26 02:22:47;;;;;;;2.87;2.20;;;10.70;99.90;;;;;;5014457;28;20260;-41
2023/09/26 02:25:14;;;;;;;3.80;1.80;;;10.70;99.90;;;;;;5013623;28;20202;-41
2023/09/26 02:27:44;;;;;;;4.60;2.10;;;10.70;99.90;;;;;;5013551;28;20186;-42
2023/09/26 02:30:12;;;;;;;2.90;1.67;;;10.70;99.90;;;;;;5013656;28;20644;-40
2023/09/26 02:32:38;;;;;;;3.53;1.90;;;10.70;99.90;;;;;;5013732;28;20181;-43
2023/09/26 02:35:07;;;;;;;3.63;2.10;;;10.70;99.90;;;;;;5013953;28;20668;-41
2023/09/26 02:37:32;;;;;;;2.17;1.80;;;10.70;99.90;;;;;;5013941;28;20232;-43
2023/09/26 02:39:58;;;;;;;4.40;2.20;;;10.60;99.90;;;;;;5013482;28;20198;-42
2023/09/26 02:42:24;;;;;;;3.17;2.00;;;10.60;99.90;;;;;;5013922;28;20178;-46
2023/09/26 02:44:49;;;;;;;2.17;1.87;;;10.60;99.90;;;;;;5014371;28;20174;-48
2023/09/26 02:47:15;;;;;;;3.53;2.20;;;10.60;99.90;;;;;;5014030;28;20645;-47
2023/09/26 02:49:41;;;;;;;4.87;2.07;;;10.60;99.90;;;;;;5013698;28;20592;-48
2023/09/26 02:52:08;;;;;;;4.13;2.23;;;10.50;99.90;;;;;;5014974;28;20552;-49
2023/09/26 02:54:34;;;;;;;2.47;1.87;;;10.50;99.90;;;;;;5017723;28;20214;-48
2023/09/26 02:56:59;;;;;;;3.20;2.07;;;10.50;99.90;;;;;;5018375;28;20173;-47
2023/09/26 02:59:25;;;;;;;3.20;2.13;;;10.50;99.90;;;;;;5017231;28;20263;-47
2023/09/26 03:01:52;;;;;;;3.27;2.20;;;10.50;99.90;;;;;;5017522;28;20212;-47
2023/09/26 03:04:17;;;;;;;2.30;1.97;;;10.50;99.90;;;;;;5016034;28;20189;-46
2023/09/26 03:06:43;;;;;;;3.10;2.13;;;10.50;99.90;;;;;;5017432;28;20589;-47
2023/09/26 03:09:09;;;;;;;3.83;2.10;;;10.50;99.90;;;;;;5017066;28;20197;-48
2023/09/26 03:11:35;;;;;;;2.57;2.10;;;10.50;99.90;;;;;;5015865;28;20181;-46
2023/09/26 03:14:00;;;;;;;4.80;2.47;;;10.40;99.90;;;;;;5016952;28;20266;-47
2023/09/26 03:16:26;;;;;;;3.27;2.20;;;10.40;99.90;;;;;;5015605;28;20637;-46
2023/09/26 03:18:55;;;;;;;5.93;2.03;;;10.40;99.90;;;;;;5015881;28;20178;-46
2023/09/26 03:21:21;;;;;;;2.93;2.63;;;10.40;99.90;;;;;;5016923;28;20185;-47
2023/09/26 03:23:47;;;;;;;3.90;1.90;;;10.40;99.90;;;;;;5016664;28;20176;-48
2023/09/26 03:26:14;;;;;;;4.50;2.33;;;10.40;99.90;;;;;;5016595;28;20197;-48
2023/09/26 03:28:39;;;;;;;4.03;2.77;;;10.40;99.90;;;;;;5016437;28;20189;-47
2023/09/26 03:31:06;;;;;;;6.03;2.20;;;10.40;99.90;;;;;;5016484;28;20328;-48
2023/09/26 03:33:34;;;;;;;2.57;2.13;;;10.40;99.90;;;;;;5015209;28;20181;-47
2023/09/26 03:36:01;;;;;;;2.10;1.90;;;10.40;99.90;;;;;;5016367;28;20263;-47
2023/09/26 03:38:27;;;;;;;3.20;2.20;;;10.40;99.90;;;;;;5016910;28;20181;-47
2023/09/26 03:40:57;;;;;;;3.40;2.20;;;10.40;99.90;;;;;;5015081;28;20224;-47
2023/09/26 03:43:27;;;;;;;3.97;2.33;;;10.30;99.90;;;;;;5015029;28;20692;-47
2023/09/26 03:46:03;;;;;;;3.97;2.07;;;10.30;99.90;;;;;;5015788;28;20203;-48
2023/09/26 03:48:30;;;;;;;2.30;2.03;;;10.30;99.90;;;;;;5016221;28;20671;-48
2023/09/26 03:51:09;;;;;;;9.70;2.47;;;10.20;99.90;;;;;;5016126;28;20594;-47
2023/09/26 03:53:35;;;;;;;5.90;2.40;;;10.20;99.90;;;;;;5014938;28;20309;-46
2023/09/26 03:56:01;;;;;;;5.43;2.47;;;10.20;99.90;;;;;;5014942;28;20693;-47
2023/09/26 03:58:27;;;;;;;3.20;2.13;;;10.20;99.90;;;;;;5016260;28;20189;-46
2023/09/26 04:00:53;;;;;;;4.23;2.40;;;10.20;99.90;;;;;;5016055;28;20700;-47
2023/09/26 04:03:22;;;;;;;4.63;2.30;;;10.10;99.90;;;;;;5014799;28;20178;-47
2023/09/26 04:05:56;;;;;;;3.83;2.20;;;10.10;99.90;;;;;;5015946;28;20196;-47
2023/09/26 04:08:22;;;;;;;3.03;1.93;;;10.10;99.90;;;;;;5020020;28;20173;-46
2023/09/26 04:10:48;;;;;;;4.63;2.40;;;10.10;99.90;;;;;;5019764;28;20208;-48
2023/09/26 04:13:14;;;;;;;2.90;2.17;;;10.10;99.90;;;;;;5019819;28;20203;-48
2023/09/26 04:15:40;;;;;;;7.17;2.47;;;10.00;99.90;;;;;;5019808;28;20211;-46
2023/09/26 04:18:06;;;;;;;6.53;2.47;;;10.00;99.90;;;;;;5016263;28;20568;-46
2023/09/26 04:20:35;;;;;;;6.70;2.00;;;10.00;99.90;;;;;;5015389;28;20284;-48
2023/09/26 04:23:01;;;;;;;4.57;2.30;;;10.00;99.90;;;;;;5015776;28;20224;-46
2023/09/26 04:25:30;;;;;;;3.93;2.30;;;10.00;99.90;;;;;;5015630;28;20637;-48
2023/09/26 04:27:55;;;;;;;4.50;2.10;;;10.00;99.90;;;;;;5014211;28;20212;-45
2023/09/26 04:30:21;;;;;;;4.60;2.47;;;10.00;99.90;;;;;;5015692;28;20652;-44
2023/09/26 04:32:47;;;;;;;3.23;2.47;;;10.00;99.90;;;;;;5014229;28;20214;-47
2023/09/26 04:35:13;;;;;;;5.30;2.40;;;10.00;99.90;;;;;;5015743;28;20300;-44
2023/09/26 04:37:39;;;;;;;7.03;2.10;;;10.00;99.90;;;;;;5015843;28;20555;-46
2023/09/26 04:40:10;;;;;;;4.73;2.50;;;10.00;99.90;;;;;;5015343;28;20204;-46
2023/09/26 04:42:40;;;;;;;5.40;2.37;;;9.90;99.90;;;;;;5014800;28;20188;-46
2023/09/26 04:45:06;;;;;;;3.40;2.17;;;10.00;99.90;;;;;;5019581;28;20236;-47
2023/09/26 04:47:32;;;;;;;6.63;2.53;;;10.00;99.90;;;;;;5021059;28;20182;-45
2023/09/26 04:49:58;;;;;;;8.63;2.60;;;10.00;99.90;;;;;;5014115;28;20287;-48
2023/09/26 04:52:24;;;;;;;4.87;2.47;;;9.90;99.90;;;;;;5015097;28;20185;-48
2023/09/26 04:54:53;;;;;;;3.83;2.33;;;9.90;99.90;;;;;;5014850;28;20224;-47
2023/09/26 04:57:19;;;;;;;7.67;2.53;;;9.90;99.90;;;;;;4997520;28;20187;-48
2023/09/26 04:59:44;;;;;;;4.70;2.30;;;9.90;99.90;;;;;;5015021;28;20201;-46
2023/09/26 05:02:11;;;;;;;4.90;2.10;;;9.90;99.90;;;;;;5013439;28;20187;-47
2023/09/26 05:04:37;;;;;;;6.47;2.97;;;9.90;99.90;;;;;;5015110;28;20185;-46
2023/09/26 05:07:03;;;;;;;4.93;2.53;;;9.90;99.90;;;;;;5014948;28;20578;-47
2023/09/26 05:09:29;;;;;;;4.00;2.67;;;9.90;99.90;;;;;;5014676;28;20212;-47
2023/09/26 05:11:55;;;;;;;3.50;2.23;;;9.90;99.90;;;;;;5014701;28;20196;-48
2023/09/26 05:14:20;;;;;;;5.00;2.77;;;9.90;99.90;;;;;;5014215;28;20212;-41
2023/09/26 05:16:46;;;;;;;6.17;3.13;;;9.90;99.90;;;;;;5014564;28;20189;-41
2023/09/26 05:19:11;;;;;;;5.37;2.50;;;9.90;99.90;;;;;;5014455;28;20283;-41
2023/09/26 05:21:37;;;;;;;3.97;2.70;;;9.90;99.90;;;;;;5014647;28;20191;-41
2023/09/26 05:24:04;;;;;;;6.00;2.53;;;9.90;99.90;;;;;;5014714;28;20544;-40
2023/09/26 05:26:30;;;;;;;3.20;2.50;;;9.90;99.90;;;;;;5014721;28;20181;-42
2023/09/26 05:28:56;;;;;;;4.47;2.20;;;9.90;99.90;;;;;;5014191;28;20287;-41
2023/09/26 05:31:21;;;;;;;4.23;2.37;;;9.90;99.90;;;;;;5014304;28;20649;-42
2023/09/26 05:33:47;;;;;;;5.40;2.60;;;9.90;99.90;;;;;;5014429;28;20192;-41
2023/09/26 05:36:12;;;;;;;2.77;2.23;;;9.80;99.90;;;;;;5014367;28;20177;-41
2023/09/26 05:38:38;;;;;;;6.23;2.03;;;9.80;99.90;;;;;;5014271;28;20176;-43
2023/09/26 05:41:05;;;;;;;4.47;2.40;;;9.80;99.90;;;;;;5014036;28;20257;-39
2023/09/26 05:43:31;;;;;;;5.33;2.43;;;9.80;99.90;;;;;;5014366;28;20176;-41
2023/09/26 05:45:57;;;;;;;3.60;2.27;;;9.80;99.90;;;;;;5014067;28;20193;-41
2023/09/26 05:48:22;;;;;;;4.00;2.07;;;9.80;99.90;;;;;;5014309;28;20242;-40
2023/09/26 05:50:48;;;;;;;2.23;2.00;;;9.80;99.90;;;;;;5013842;28;20681;-41
2023/09/26 05:53:14;;;;;;;4.03;2.70;;;9.70;99.90;;;;;;5014127;28;20182;-43
2023/09/26 05:55:39;;;;;;;3.53;2.40;;;9.80;99.90;;;;;;5013858;28;20670;-42
2023/09/26 05:58:05;;;;;;;5.40;2.60;;;9.80;99.90;;;;;;5014174;28;20183;-38
2023/09/26 06:00:30;;;;;;;4.17;2.43;;;9.80;99.90;;;;;;5013716;28;20697;-39
2023/09/26 06:02:56;;;;;;;3.73;2.33;;;9.90;99.90;;;;;;5013722;28;20264;-40
2023/09/26 06:05:21;;;;;;;3.63;2.70;;;9.90;99.90;;;;;;5013930;28;20184;-42
2023/09/26 06:07:49;;;;;;;2.87;2.43;;;10.00;99.90;;;;;;5013643;28;20531;-40
2023/09/26 06:10:14;;;;;;;4.87;2.50;;;10.00;99.90;;;;;;5013605;28;20226;-42
2023/09/26 06:12:41;;;;;;;4.40;2.20;;;10.00;99.90;;;;;;5013727;28;20262;-40
2023/09/26 06:15:09;;;;;;;6.00;2.60;;;10.00;99.90;;;;;;5013521;28;20638;-42
2023/09/26 06:17:35;;;;;;;4.50;2.60;;;10.10;99.90;;;;;;5013830;28;20547;-43
2023/09/26 06:20:01;;;;;;;5.77;2.70;;;10.10;99.90;;;;;;5013816;28;20200;-42
2023/09/26 06:22:26;;;;;;;5.40;3.10;;;10.20;99.90;;;;;;5013804;28;20521;-40
2023/09/26 06:24:52;;;;;;;5.33;2.53;;;10.20;99.90;;;;;;5013762;28;20199;-44
2023/09/26 06:27:17;;;;;;;3.57;2.63;;;10.20;99.90;;;;;;5016814;28;20264;-44
2023/09/26 06:29:43;;;;;;;3.57;2.60;;;10.30;99.90;;;;;;5017498;28;20270;-43
2023/09/26 06:32:10;;;;;;;5.13;3.20;;;10.30;99.90;;;;;;5017817;28;20192;-44
2023/09/26 06:34:38;;;;;;;3.93;2.63;;;10.40;99.90;;;;;;5017357;28;20211;-43
2023/09/26 06:37:04;;;;;;;4.10;2.60;;;10.50;99.90;;;;;;5017436;28;20276;-41
2023/09/26 06:39:30;;;;;;;9.27;3.13;;;10.60;99.90;;;;;;5017405;28;20287;-41
2023/09/26 06:41:55;;;;;;;6.47;3.10;;;10.60;99.90;;;;;;5018639;28;20242;-44
2023/09/26 06:44:21;;;;;;;6.60;3.33;;;10.70;99.90;;;;;;5019375;28;20713;-42
2023/09/26 06:46:46;;;;;;;4.30;3.30;;;10.70;99.90;;;;;;5017890;28;20270;-44
2023/09/26 06:49:12;;;;;;;6.17;3.53;;;10.80;99.90;;;;;;5017321;28;20228;-41
2023/09/26 06:51:38;;;;;;;4.63;3.23;;;10.90;99.90;;;;;;5017267;28;20649;-44
2023/09/26 06:54:04;;;;;;;6.67;2.83;;;11.00;99.90;;;;;;5017405;28;20197;-43
2023/09/26 06:56:30;;;;;;;8.13;3.37;;;11.10;99.90;;;;;;5017545;28;20185;-43
2023/09/26 06:58:55;;;;;;;4.27;3.23;;;11.20;99.90;;;;;;5017087;28;20181;-41
2023/09/26 07:01:21;;;;;;;6.47;2.80;;;11.20;99.90;;;;;;5017318;28;20218;-43
2023/09/26 07:03:47;;;;;;;7.83;2.87;;;11.40;99.90;;;;;;5017003;28;20296;-43
2023/09/26 07:06:14;;;;;;;4.90;3.30;;;11.50;99.90;;;;;;5017015;28;20183;-40
2023/09/26 07:08:41;;;;;;;5.93;3.00;;;11.60;99.90;;;;;;5017003;28;20181;-42
2023/09/26 07:11:08;;;;;;;7.60;3.13;;;11.80;99.90;;;;;;5016903;28;20292;-41
2023/09/26 07:13:34;;;;;;;4.43;2.83;;;11.90;99.90;;;;;;5016913;28;20586;-41
2023/09/26 07:16:03;;;;;;;5.03;2.87;;;11.90;99.90;;;;;;5016978;28;20209;-40
2023/09/26 07:18:30;;;;;;;4.53;3.37;;;12.10;99.90;;;;;;5017076;28;20189;-41
2023/09/26 07:20:59;;;;;;;4.83;3.70;;;12.20;99.90;;;;;;5016769;28;20280;-43
2023/09/26 07:23:25;;;;;;;5.73;3.50;;;12.40;99.90;;;;;;5016967;28;20185;-42
2023/09/26 07:25:50;;;;;;;5.13;3.43;;;12.50;99.90;;;;;;5016609;28;20195;-41
2023/09/26 07:28:16;;;;;;;5.00;3.70;;;12.70;99.90;;;;;;5016788;28;20239;-42
2023/09/26 07:30:44;;;;;;;8.37;3.70;;;12.80;99.90;;;;;;5015280;28;20266;-41
2023/09/26 07:33:10;;;;;;;5.50;3.70;;;13.00;99.90;;;;;;5016512;28;20188;-42
2023/09/26 07:35:35;;;;;;;5.63;3.33;;;13.00;99.90;;;;;;5016594;28;20213;-43
2023/09/26 07:38:01;;;;;;;5.60;3.73;;;13.20;99.90;;;;;;5015143;28;20186;-42
2023/09/26 07:40:27;;;;;;;5.50;3.57;;;13.40;99.90;;;;;;5016765;28;20209;-42
2023/09/26 07:42:52;;;;;;;4.90;4.10;;;13.50;99.90;;;;;;5016311;28;20180;-41
2023/09/26 07:45:18;;;;;;;7.10;3.57;;;13.60;99.90;;;;;;5016233;28;20189;-43
2023/09/26 07:47:44;;;;;;;6.03;3.47;;;13.70;99.90;;;;;;5016424;28;20189;-42
2023/09/26 07:50:10;;;;;;;4.70;3.30;;;13.80;99.90;;;;;;5017949;28;20209;-41
2023/09/26 07:52:36;;;;;;;7.27;3.50;;;14.00;99.90;;;;;;5019705;28;20622;-41
2023/09/26 07:55:02;;;;;;;3.80;3.37;;;14.10;99.90;;;;;;5017862;28;20296;-43
2023/09/26 07:57:28;;;;;;;6.57;3.57;;;14.20;99.90;;;;;;5016291;28;20194;-39
2023/09/26 07:59:54;;;;;;;6.43;3.67;;;14.40;99.90;;;;;;5015895;28;20197;-42
2023/09/26 08:02:20;;;;;;;5.30;3.67;;;14.40;99.90;;;;;;5016195;28;20177;-42
2023/09/26 08:04:46;;;;;;;5.33;3.93;;;14.50;99.90;;;;;;5016128;28;20204;-42
2023/09/26 08:07:12;;;;;;;4.87;3.37;;;14.60;99.90;;;;;;5016087;28;20225;-43
2023/09/26 08:09:38;;;;;;;7.13;3.27;;;14.80;99.90;;;;;;5015897;28;20300;-40
2023/09/26 08:12:04;;;;;;;6.13;3.03;;;14.90;99.90;;;;;;5016058;28;20228;-43
2023/09/26 08:14:29;;;;;;;3.47;2.73;;;15.00;99.90;;;;;;5015820;28;20205;-43
2023/09/26 08:16:55;;;;;;;4.33;3.00;;;15.20;99.90;;;;;;5015624;28;20178;-41
2023/09/26 08:19:21;;;;;;;3.67;3.03;;;15.30;99.90;;;;;;5015728;28;20719;-42
2023/09/26 08:21:46;;;;;;;3.97;2.97;;;15.50;99.90;;;;;;5015530;28;20204;-41
2023/09/26 08:24:12;;;;;;;5.17;2.80;;;15.60;99.90;;;;;;5015440;28;20273;-41
2023/09/26 08:26:37;;;;;;;5.10;2.33;;;15.80;99.90;;;;;;5015697;28;20231;-40
2023/09/26 08:29:05;;;;;;;4.57;2.63;;;15.80;99.90;;;;;;5015329;28;20205;-42
2023/09/26 08:31:31;;;;;;;9.40;2.77;;;15.90;96.70;;;;;;5015582;28;20224;-43
2023/09/26 08:33:57;;;;;;;4.27;2.70;;;16.00;92.20;;;;;;5015331;28;20580;-41
2023/09/26 08:36:22;;;;;;;5.27;2.57;;;16.10;94.50;;;;;;5015216;28;20611;-39
2023/09/26 08:38:50;;;;;;;4.03;2.77;;;16.20;94.40;;;;;;5015151;28;20272;-41
2023/09/26 08:41:17;;;;;;;4.93;2.67;;;16.30;94.70;;;;;;5015164;28;20253;-42
2023/09/26 08:43:43;;;;;;;4.13;2.60;;;16.40;92.90;;;;;;5015430;28;20185;-42
2023/09/26 08:46:10;;;;;;;7.67;2.93;;;16.50;94.20;;;;;;5015233;28;20209;-41
2023/09/26 08:48:37;;;;;;;4.63;2.93;;;16.60;91.10;;;;;;5013104;28;20245;-44
2023/09/26 08:51:03;;;;;;;4.70;2.80;;;16.60;90.10;;;;;;5015264;28;20239;-41
2023/09/26 08:53:29;;;;;;;4.37;2.70;;;16.70;91.40;;;;;;5014947;28;20184;-41
2023/09/26 08:55:55;;;;;;;3.13;2.43;;;16.80;88.90;;;;;;5015085;28;20657;-41
2023/09/26 08:58:21;;;;;;;3.13;2.60;;;16.90;88.40;;;;;;5015148;28;20252;-41
2023/09/26 09:00:47;;;;;;;6.17;2.60;;;17.00;85.50;;;;;;5015049;28;20198;-41
2023/09/26 09:03:13;;;;;;;4.47;2.40;;;17.10;85.50;;;;;;5015275;28;20201;-39
2023/09/26 09:05:40;;;;;;;4.03;2.47;;;17.20;80.70;;;;;;5015014;28;20182;-39
2023/09/26 09:08:15;;;;;;;6.50;2.90;;;17.30;80.10;;;;;;5015303;28;20181;-42
2023/09/26 09:10:52;;;;;;;4.13;2.30;;;17.50;79.00;;;;;;5014642;28;20211;-40
2023/09/26 09:13:28;;;;;;;5.97;2.90;;;17.60;72.90;;;;;;5014575;28;20256;-40
2023/09/26 09:16:10;;;;;;;3.40;2.37;;;17.70;68.80;;;;;;5014867;28;20205;-41
2023/09/26 09:18:41;;;;;;;4.77;2.20;;;17.80;68.40;;;;;;5014533;28;20182;-42
2023/09/26 09:21:34;;;;;;;3.27;2.33;;;17.90;66.20;;;;;;5014624;28;20216;-40
2023/09/26 09:24:02;;;;;;;2.47;2.17;;;18.00;61.10;;;;;;5014551;28;20184;-40
2023/09/26 09:26:31;;;;;;;3.63;2.10;;;18.10;51.40;;;;;;5014410;28;20181;-41
2023/09/26 09:28:59;;;;;;;5.07;2.67;;;18.20;50.50;;;;;;5014383;28;20193;-41
2023/09/26 09:31:27;;;;;;;3.87;2.50;;;18.40;47.90;;;;;;5014623;28;20189;-43
2023/09/26 09:33:52;;;;;;;4.57;2.40;;;18.40;48.00;;;;;;5014420;28;20204;-41
2023/09/26 09:36:20;;;;;;;5.63;2.07;;;18.60;54.90;;;;;;5014540;28;20689;-42
2023/09/26 09:38:46;;;;;;;2.87;2.50;;;18.70;49.10;;;;;;5012812;28;20251;-45
2023/09/26 09:41:11;;;;;;;3.40;2.47;;;18.80;47.90;;;;;;5014412;28;20705;-41
2023/09/26 09:43:40;;;;;;;4.43;2.10;;;18.90;40.70;;;;;;5014385;28;20194;-41
2023/09/26 09:46:09;;;;;;;3.47;2.20;;;19.00;46.80;;;;;;5013970;28;20207;-41
2023/09/26 09:48:43;;;;;;;3.23;1.67;;;19.10;38.20;;;;;;5014183;28;20660;-42
2023/09/26 09:51:11;;;;;;;7.67;2.13;;;19.20;32.90;;;;;;5013933;28;20784;-41
2023/09/26 09:53:40;;;;;;;4.77;2.07;;;19.30;24.50;;;;;;5014195;28;20190;-41
2023/09/26 09:56:07;;;;;;;2.90;1.87;;;19.40;21.30;;;;;;5013901;28;20283;-43
2023/09/26 09:58:39;;;;;;;3.77;1.80;;;19.50;19.60;;;;;;5014158;28;20551;-41
2023/09/26 10:01:05;;;;;;;7.53;2.20;;;19.70;19.10;;;;;;5014048;28;20201;-42
2023/09/26 10:03:33;;;;;;;4.53;1.60;;;19.70;15.80;;;;;;5014066;28;20209;-42
2023/09/26 10:05:59;;;;;;;6.43;1.90;;;19.90;20.20;;;;;;5014053;28;20193;-43
2023/09/26 10:08:26;;;;;;;6.13;1.97;;;19.90;1.00;;;;;;5013782;28;20190;-42
2023/09/26 10:10:54;;;;;;;7.43;2.00;;;20.00;1.00;;;;;;5013884;28;20201;-41
2023/09/26 10:13:20;;;;;;;3.33;1.60;;;20.10;1.00;;;;;;5013637;28;20645;-41
2023/09/26 10:16:05;;;;;;;3.40;1.60;;;20.20;1.00;;;;;;5013622;28;20749;-42
2023/09/26 10:18:37;;;;;;;5.53;1.73;;;20.30;1.00;;;;;;5013610;28;20550;-43
2023/09/26 10:21:03;;;;;;;4.63;1.70;;;20.40;1.00;;;;;;5013532;28;20201;-39
2023/09/26 10:23:28;;;;;;;6.77;2.07;;;20.50;1.00;;;;;;5013588;28;20265;-42
2023/09/26 10:25:54;;;;;;;9.80;1.93;;;20.60;1.00;;;;;;5013803;28;20614;-43
2023/09/26 10:28:21;;;;;;;3.87;1.80;;;20.70;1.00;;;;;;5013586;28;20193;-43
2023/09/26 10:30:55;;;;;;;4.53;2.10;;;20.80;1.00;;;;;;5013444;28;20206;-48
2023/09/26 10:33:21;;;;;;;4.13;1.90;;;20.90;1.00;;;;;;5013390;28;20684;-49
2023/09/26 10:35:48;;;;;;;7.13;1.70;;;20.90;1.00;;;;;;5013285;28;20213;-47
2023/09/26 10:38:23;;;;;;;6.23;1.80;;;21.10;1.00;;;;;;5013338;28;20660;-49
2023/09/26 10:40:49;;;;;;;2.60;1.80;;;21.10;1.00;;;;;;5012828;28;20201;-47
2023/09/26 10:43:16;;;;;;;7.37;2.20;;;21.30;1.00;;;;;;5012167;28;20185;-47
2023/09/26 10:45:44;;;;;;;4.43;1.90;;;21.40;1.00;;;;;;5013286;28;20185;-48
2023/09/26 10:48:11;;;;;;;6.67;2.27;;;21.50;1.00;;;;;;5012081;28;20189;-46
2023/09/26 10:50:39;;;;;;;2.30;1.40;;;21.60;1.00;;;;;;5013241;28;20213;-47
2023/09/26 10:53:06;;;;;;;5.57;1.80;;;21.80;1.00;;;;;;5013267;28;20267;-48
2023/09/26 10:55:33;;;;;;;4.17;1.63;;;21.90;1.00;;;;;;5013267;28;20205;-46
2023/09/26 10:58:00;;;;;;;6.30;1.83;;;21.90;1.00;;;;;;5013241;28;20201;-47
2023/09/26 11:00:28;;;;;;;4.83;1.63;;;22.10;1.00;;;;;;5013469;28;20684;-46
2023/09/26 11:02:57;;;;;;;5.23;1.83;;;22.20;1.00;;;;;;5013127;28;20266;-46
2023/09/26 11:05:27;;;;;;;5.00;1.60;;;22.40;1.00;;;;;;5013261;28;20653;-46
2023/09/26 11:07:54;;;;;;;3.30;1.80;;;22.60;1.00;;;;;;5013142;28;20193;-48
2023/09/26 11:10:21;;;;;;;2.43;1.70;;;22.70;1.00;;;;;;5011787;28;20209;-47
2023/09/26 11:12:49;;;;;;;4.63;1.40;;;22.80;1.00;;;;;;5013988;28;20193;-48
2023/09/26 11:15:15;;;;;;;2.50;1.50;;;22.90;1.00;;;;;;5015519;28;20296;-47
2023/09/26 11:17:42;;;;;;;4.77;1.60;;;23.00;1.00;;;;;;5016768;28;20559;-47
2023/09/26 11:20:11;;;;;;;3.23;1.70;;;23.10;1.00;;;;;;5016675;28;20205;-48
2023/09/26 11:22:48;;;;;;;3.07;1.30;;;23.30;1.00;;;;;;5016772;28;20661;-48
2023/09/26 11:25:15;;;;;;;4.07;1.60;;;23.30;1.00;;;;;;5016672;28;20642;-47
2023/09/26 11:27:44;;;;;;;3.73;2.10;;;23.30;1.00;;;;;;5016466;28;20185;-47
2023/09/26 11:30:14;;;;;;;3.47;1.80;;;23.40;1.00;;;;;;5016504;28;20221;-47
2023/09/26 11:32:50;;;;;;;4.17;1.47;;;23.50;99.90;;;;;;5016534;28;20176;-46
2023/09/26 11:35:17;;;;;;;3.23;1.80;;;23.50;1.00;;;;;;5015131;28;20319;-46
2023/09/26 11:37:43;;;;;;;4.53;1.80;;;23.60;99.90;;;;;;5015509;28;20182;-47
2023/09/26 11:40:19;;;;;;;1.70;1.37;;;23.50;1.00;;;;;;5016267;28;20197;-47
2023/09/26 11:42:46;;;;;;;3.83;1.73;;;23.60;1.00;;;;;;5016302;28;20173;-47
2023/09/26 11:45:26;;;;;;;2.23;1.43;;;23.70;99.90;;;;;;5016230;28;20185;-47
2023/09/26 11:47:54;;;;;;;7.40;1.60;;;23.80;99.90;;;;;;5017276;28;20185;-47
2023/09/26 11:50:21;;;;;;;1.83;1.53;;;24.00;99.90;;;;;;5015583;28;20213;-46
2023/09/26 11:52:48;;;;;;;2.90;1.50;;;24.00;99.90;;;;;;5015590;28;20194;-47
2023/09/26 11:55:22;;;;;;;2.60;1.60;;;24.00;1.00;;;;;;5014662;28;20209;-46
2023/09/26 11:57:51;;;;;;;2.40;1.63;;;24.10;1.00;;;;;;5015991;28;20194;-46
2023/09/26 12:00:18;;;;;;;3.17;1.20;;;24.30;99.90;;;;;;5014693;28;20292;-47
2023/09/26 12:02:49;;;;;;;4.33;1.67;;;24.50;99.90;;;;;;5015881;28;20549;-47
2023/09/26 12:05:22;;;;;;;2.37;1.50;;;24.60;99.90;;;;;;5016207;28;20169;-47
2023/09/26 12:07:50;;;;;;;4.17;1.70;;;24.70;99.90;;;;;;5014553;28;20654;-47
2023/09/26 12:10:18;;;;;;;1.90;1.50;;;24.90;99.90;;;;;;5015727;28;20620;-47
2023/09/26 12:12:45;;;;;;;3.00;1.43;;;25.00;1.00;;;;;;5016288;28;20181;-47
2023/09/26 12:15:19;;;;;;;3.73;2.00;;;25.10;99.90;;;;;;5015833;28;20213;-47
2023/09/26 12:17:46;;;;;;;3.40;1.70;;;25.20;99.90;;;;;;5016240;28;20535;-47
2023/09/26 12:20:21;;;;;;;4.33;1.67;;;25.30;99.90;;;;;;5015429;28;20200;-46
2023/09/26 12:22:51;;;;;;;4.30;1.67;;;25.50;99.90;;;;;;5015439;28;20158;-46
2023/09/26 12:25:19;;;;;;;4.00;1.53;;;25.70;99.90;;;;;;5014730;28;20536;-47
2023/09/26 12:27:47;;;;;;;5.50;1.80;;;25.80;1.00;;;;;;5014114;28;20192;-47
2023/09/26 12:30:13;;;;;;;3.03;1.43;;;25.80;99.90;;;;;;5015522;28;20208;-41
2023/09/26 12:32:40;;;;;;;3.20;1.37;;;25.90;99.90;;;;;;5015400;28;20181;-42
2023/09/26 12:35:06;;;;;;;3.17;1.80;;;25.90;99.90;;;;;;5015611;28;20236;-40
2023/09/26 12:37:32;;;;;;;2.05;1.58;;;25.80;1.00;;;;;;5015641;28;20582;-43
2023/09/26 12:39:57;;;;;;;6.20;1.92;;;25.60;1.00;;;;;;5015249;28;20688;-42
2023/09/26 12:42:24;;;;;;;2.13;1.40;;;25.50;1.00;;;;;;5015151;28;20212;-43
2023/09/26 12:44:50;;;;;;;2.78;1.80;;;25.40;99.90;;;;;;5015149;28;20181;-41
2023/09/26 12:47:16;;;;;;;2.47;1.70;;;25.40;1.00;;;;;;5015318;28;20261;-46
2023/09/26 12:49:46;;;;;;;5.25;1.65;;;25.60;99.90;;;;;;5015028;28;20205;-43